CheckWX is a tool to help pilots better visualize weather data.  It is not intended as a substitute for an official pre-flight weather briefing.

01:03:57 UTC

DNBE TAF
Benin Airport
Benin, Nigeria
TAF DNBE 232150Z 2400/2506 24009KT 8000 TS SCT009 FEW019CB BECMG 2402/2404 VRB02KT NSW TEMPO 2405/2408 5000 BR PROB30 2406/2407 3000 BECMG 2408/2410 26010KT BKN013 FEW020CB

Feb-24@
00:00 UTC

Feb-24 @ 00:00 UTC

Feb-24@
02:00 UTC

Feb-24 @ 02:00 UTC

TAF DNBE 232150Z 2400/2506 24009KT 8000 TS SCT009 FEW019CB
Wind
  • 240° at 9 KTS
Conditions
Thunderstorm
Cloud Levels
  • Scattered at 900' AGL
  • Few at 1,900' AGL

Feb-24@
02:00 UTC

Feb-24 @ 02:00 UTC

Feb-24@
08:00 UTC

Feb-24 @ 08:00 UTC

BECMG 2402/2404 VRB02KT NSW

Becoming

Becoming Conditions expected by Sun, Feb 24, 2019 @ 04:00 UTC

Wind
  • Variable at 2 KTS
Conditions
No significant weather
Cloud Levels
  • Scattered at 900' AGL
  • Few at 1,900' AGL

Feb-24@
05:00 UTC

Feb-24 @ 05:00 UTC

Feb-24@
08:00 UTC

Feb-24 @ 08:00 UTC

TEMPO 2405/2408 5000 BR

Temporary

Temporary Changes expected for less than half the time period

Conditions
Mist

Feb-24@
06:00 UTC

Feb-24 @ 06:00 UTC

Feb-24@
07:00 UTC

Feb-24 @ 07:00 UTC

PROB30 2406/2407 3000

Probable - 30% Likelihood

Probable - 30% Likelihood during this time.

Feb-24@
08:00 UTC

Feb-24 @ 08:00 UTC

Feb-25@
06:00 UTC

Feb-25 @ 06:00 UTC

BECMG 2408/2410 26010KT BKN013 FEW020CB

Becoming

Becoming Conditions expected by Sun, Feb 24, 2019 @ 10:00 UTC

Wind
  • 260° at 10 KTS
Conditions
No significant weather
Cloud Levels
  • Broken at 1,300' AGL
  • Few at 2,000' AGL